createdAt,value
2023-02-23T00:00:26.577Z,0
2023-02-23T00:01:27.081Z,0
2023-02-23T00:02:26.907Z,0
2023-02-23T00:03:26.523Z,0
2023-02-23T00:04:26.479Z,0
2023-02-23T00:05:26.534Z,0
2023-02-23T00:06:26.641Z,0
2023-02-23T00:07:26.416Z,0
2023-02-23T00:08:26.331Z,0
2023-02-23T00:09:26.301Z,0
2023-02-23T00:10:26.029Z,0
2023-02-23T00:11:27.251Z,0
2023-02-23T00:12:26.596Z,0
2023-02-23T00:13:26.194Z,0
2023-02-23T00:14:26.248Z,0
2023-02-23T00:15:26.143Z,0
2023-02-23T00:16:26.464Z,0
2023-02-23T00:17:26.072Z,0
2023-02-23T00:18:26.079Z,0
2023-02-23T00:19:26.081Z,0
2023-02-23T00:20:26.031Z,0
2023-02-23T00:21:26.984Z,0
2023-02-23T00:22:25.915Z,0
2023-02-23T00:23:25.942Z,0
2023-02-23T00:24:25.876Z,0
2023-02-23T00:25:25.355Z,0
2023-02-23T00:26:25.786Z,0
2023-02-23T00:27:26.029Z,0
2023-02-23T00:28:25.766Z,0
2023-02-23T00:29:25.764Z,0
2023-02-23T00:30:25.665Z,0
2023-02-23T00:31:26.768Z,0
2023-02-23T00:32:26.087Z,0
2023-02-23T00:33:25.573Z,0
2023-02-23T00:34:25.666Z,0
2023-02-23T00:35:25.517Z,0
2023-02-23T00:36:25.531Z,0
2023-02-23T00:37:25.603Z,0
2023-02-23T00:38:25.486Z,0
2023-02-23T00:39:25.732Z,0
2023-02-23T00:40:25.400Z,0
2023-02-23T00:41:26.150Z,0
2023-02-23T00:42:25.472Z,0
2023-02-23T00:43:25.328Z,0
2023-02-23T00:44:25.451Z,0
2023-02-23T00:45:25.339Z,0
2023-02-23T00:46:25.492Z,0
2023-02-23T00:47:25.160Z,0
2023-02-23T00:48:25.134Z,0
2023-02-23T00:49:25.154Z,0
2023-02-23T00:50:25.145Z,0
2023-02-23T00:51:25.662Z,0
2023-02-23T00:52:25.071Z,0
2023-02-23T00:53:24.744Z,0
2023-02-23T00:54:25.007Z,0
2023-02-23T00:55:24.844Z,0
2023-02-23T00:56:24.903Z,0
2023-02-23T00:57:24.964Z,0
2023-02-23T00:58:24.833Z,0
2023-02-23T00:59:24.860Z,0
2023-02-23T01:00:24.869Z,0
2023-02-23T01:01:26.053Z,0
2023-02-23T01:02:25.016Z,0
2023-02-23T01:03:24.687Z,0
2023-02-23T01:04:24.640Z,0
2023-02-23T01:05:24.627Z,0
2023-02-23T01:06:24.613Z,0
2023-02-23T01:07:24.570Z,0
2023-02-23T01:08:24.556Z,0
2023-02-23T01:09:24.556Z,0
2023-02-23T01:10:24.575Z,0
2023-02-23T01:11:25.307Z,0
2023-02-23T01:12:24.420Z,0
2023-02-23T01:13:24.396Z,0
2023-02-23T01:14:24.362Z,0
2023-02-23T01:15:24.486Z,0
2023-02-23T01:16:24.360Z,0
2023-02-23T01:17:24.274Z,0
2023-02-23T01:18:24.235Z,0
2023-02-23T01:19:24.205Z,0
2023-02-23T01:20:25.312Z,0
2023-02-23T01:21:24.915Z,0
2023-02-23T01:22:24.155Z,0
2023-02-23T01:23:25.932Z,0
2023-02-23T01:24:24.160Z,0
2023-02-23T01:25:24.035Z,0
2023-02-23T01:26:24.035Z,0
2023-02-23T01:27:24.093Z,0
2023-02-23T01:28:23.917Z,0
2023-02-23T01:29:23.965Z,0
2023-02-23T01:30:23.946Z,0
2023-02-23T01:31:25.840Z,0
2023-02-23T01:32:24.486Z,0
2023-02-23T01:33:23.814Z,0
2023-02-23T01:34:23.546Z,0
2023-02-23T01:35:23.770Z,0
2023-02-23T01:36:23.688Z,0
2023-02-23T01:37:23.678Z,0
2023-02-23T01:38:23.634Z,0
2023-02-23T01:39:23.611Z,0
2023-02-23T01:40:23.606Z,0
2023-02-23T01:41:24.490Z,0
2023-02-23T01:42:23.522Z,0
2023-02-23T01:43:23.570Z,0
2023-02-23T01:44:23.246Z,0
2023-02-23T01:45:23.420Z,0
2023-02-23T01:46:23.692Z,0
2023-02-23T01:47:23.396Z,0
2023-02-23T01:48:23.399Z,0
2023-02-23T01:49:23.296Z,0
2023-02-23T01:50:23.278Z,0
2023-02-23T01:51:23.981Z,0
2023-02-23T01:52:23.217Z,0
2023-02-23T01:53:23.175Z,0
2023-02-23T01:54:23.262Z,0
2023-02-23T01:55:22.896Z,0
2023-02-23T01:56:23.194Z,0
2023-02-23T01:57:23.064Z,0
2023-02-23T01:58:23.037Z,0
2023-02-23T01:59:23.086Z,0
2023-02-23T02:00:22.974Z,0
2023-02-23T02:01:23.830Z,0
2023-02-23T02:02:22.986Z,0
2023-02-23T02:03:22.933Z,0
2023-02-23T02:04:22.879Z,0
2023-02-23T02:05:23.274Z,0
2023-02-23T02:06:22.840Z,0
2023-02-23T02:07:22.780Z,0
2023-02-23T02:08:22.724Z,0
2023-02-23T02:09:22.697Z,0
2023-02-23T02:10:22.730Z,0
2023-02-23T02:11:23.391Z,0
2023-02-23T02:12:22.664Z,0
2023-02-23T02:13:22.593Z,0
2023-02-23T02:14:22.586Z,0
2023-02-23T02:15:22.716Z,0
2023-02-23T02:16:22.758Z,0
2023-02-23T02:17:22.476Z,0
2023-02-23T02:18:22.457Z,0
2023-02-23T02:19:22.415Z,0
2023-02-23T02:20:22.502Z,0
2023-02-23T02:21:23.338Z,0
2023-02-23T02:22:22.093Z,0
2023-02-23T02:23:22.274Z,0
2023-02-23T02:24:22.015Z,0
2023-02-23T02:25:22.092Z,0
2023-02-23T02:26:22.195Z,0
2023-02-23T02:27:22.155Z,0
2023-02-23T02:28:22.327Z,0
2023-02-23T02:29:22.148Z,0
2023-02-23T02:30:22.246Z,0
2023-02-23T02:31:23.370Z,0
2023-02-23T02:32:22.504Z,0
2023-02-23T02:33:21.980Z,0
2023-02-23T02:34:21.951Z,0
2023-02-23T02:35:21.965Z,0
2023-02-23T02:36:21.917Z,0
2023-02-23T02:37:21.849Z,0
2023-02-23T02:38:21.821Z,0
2023-02-23T02:39:21.788Z,0
2023-02-23T02:40:21.835Z,0
2023-02-23T02:41:22.628Z,0
2023-02-23T02:42:21.720Z,0
2023-02-23T02:43:21.665Z,0
2023-02-23T02:44:21.678Z,0
2023-02-23T02:45:21.635Z,0
2023-02-23T02:46:21.974Z,0
2023-02-23T02:47:21.379Z,0
2023-02-23T02:48:21.132Z,0
2023-02-23T02:49:21.520Z,0
2023-02-23T02:50:21.227Z,0
2023-02-23T02:51:22.537Z,0
2023-02-23T02:52:21.551Z,0
2023-02-23T02:53:21.376Z,0
2023-02-23T02:54:21.350Z,0
2023-02-23T02:55:21.350Z,0
2023-02-23T02:56:21.344Z,0
2023-02-23T02:57:21.254Z,0
2023-02-23T02:58:21.243Z,0
2023-02-23T02:59:21.188Z,0
2023-02-23T03:00:21.249Z,0
2023-02-23T03:01:22.388Z,0
2023-02-23T03:02:21.101Z,0
2023-02-23T03:03:21.172Z,0
2023-02-23T03:04:21.059Z,0
2023-02-23T03:05:21.270Z,0
2023-02-23T03:06:21.018Z,0
2023-02-23T03:07:21.021Z,0
2023-02-23T03:08:20.957Z,0
2023-02-23T03:09:20.899Z,0
2023-02-23T03:10:20.863Z,0
2023-02-23T03:11:21.550Z,0
2023-02-23T03:12:20.838Z,0
2023-02-23T03:13:20.822Z,0
2023-02-23T03:14:20.763Z,0
2023-02-23T03:15:20.727Z,0
2023-02-23T03:16:21.026Z,0
2023-02-23T03:17:20.664Z,0
2023-02-23T03:18:20.626Z,0
2023-02-23T03:19:20.802Z,0
2023-02-23T03:20:20.631Z,0
2023-02-23T03:21:21.205Z,0
2023-02-23T03:22:20.515Z,0
2023-02-23T03:23:20.553Z,0
2023-02-23T03:24:20.463Z,0
2023-02-23T03:25:20.422Z,0
2023-02-23T03:26:20.372Z,0
2023-02-23T03:27:20.350Z,0
2023-02-23T03:28:20.339Z,0
2023-02-23T03:29:20.301Z,0
2023-02-23T03:30:20.276Z,0
2023-02-23T03:31:21.366Z,0
2023-02-23T03:32:20.908Z,0
2023-02-23T03:33:20.173Z,0
2023-02-23T03:34:20.139Z,0
2023-02-23T03:35:20.242Z,0
2023-02-23T03:36:20.191Z,0
2023-02-23T03:37:20.080Z,0
2023-02-23T03:38:20.009Z,0
2023-02-23T03:39:20.062Z,0
2023-02-23T03:40:20.023Z,0
2023-02-23T03:41:20.784Z,0
2023-02-23T03:42:19.897Z,0
2023-02-23T03:43:19.872Z,0
2023-02-23T03:44:19.599Z,0
2023-02-23T03:45:19.833Z,0
2023-02-23T03:46:19.569Z,0
2023-02-23T03:47:19.763Z,0
2023-02-23T03:48:19.916Z,0
2023-02-23T03:49:19.692Z,0
2023-02-23T03:50:19.678Z,0
2023-02-23T03:51:20.483Z,0
2023-02-23T03:52:19.393Z,0
2023-02-23T03:53:19.588Z,0
2023-02-23T03:54:19.568Z,0
2023-02-23T03:55:19.583Z,0
2023-02-23T03:56:19.507Z,0
2023-02-23T03:57:19.458Z,0
2023-02-23T03:58:21.212Z,0
2023-02-23T03:59:19.459Z,0
2023-02-23T04:00:19.368Z,0
2023-02-23T04:01:20.193Z,0
2023-02-23T04:02:19.698Z,0
2023-02-23T04:03:19.468Z,0
2023-02-23T04:04:19.257Z,0
2023-02-23T04:05:19.216Z,0
2023-02-23T04:06:19.172Z,0
2023-02-23T04:07:19.320Z,0
2023-02-23T04:08:18.864Z,0
2023-02-23T04:09:19.091Z,0
2023-02-23T04:10:19.100Z,0
2023-02-23T04:11:19.862Z,0
2023-02-23T04:12:19.022Z,0
2023-02-23T04:13:18.543Z,0
2023-02-23T04:14:18.949Z,0
2023-02-23T04:15:18.922Z,0
2023-02-23T04:16:19.261Z,0
2023-02-23T04:17:18.840Z,0
2023-02-23T04:18:18.851Z,0
2023-02-23T04:19:18.831Z,0
2023-02-23T04:20:19.006Z,0
2023-02-23T04:21:19.993Z,0
2023-02-23T04:22:18.704Z,0
2023-02-23T04:23:18.707Z,0
2023-02-23T04:24:18.665Z,0
2023-02-23T04:25:19.981Z,0
2023-02-23T04:26:18.586Z,0
2023-02-23T04:27:18.573Z,0
2023-02-23T04:28:18.540Z,0
2023-02-23T04:29:18.248Z,0
2023-02-23T04:30:18.630Z,0
2023-02-23T04:31:18.913Z,0
2023-02-23T04:32:19.066Z,0
2023-02-23T04:33:18.458Z,0
2023-02-23T04:34:18.336Z,0
2023-02-23T04:35:18.360Z,0
2023-02-23T04:36:18.293Z,0
2023-02-23T04:37:18.043Z,0
2023-02-23T04:38:18.259Z,0
2023-02-23T04:39:18.301Z,0
2023-02-23T04:40:18.178Z,0
2023-02-23T04:41:18.378Z,0
2023-02-23T04:42:18.104Z,0
2023-02-23T04:43:18.107Z,0
2023-02-23T04:44:18.055Z,0
2023-02-23T04:45:18.020Z,0
2023-02-23T04:46:18.363Z,0
2023-02-23T04:47:17.962Z,0
2023-02-23T04:48:17.966Z,0
2023-02-23T04:49:17.883Z,0
2023-02-23T04:50:17.860Z,0
2023-02-23T04:51:17.994Z,0
2023-02-23T04:52:17.814Z,0
2023-02-23T04:53:17.755Z,0
2023-02-23T04:54:17.704Z,0
2023-02-23T04:55:17.745Z,0
2023-02-23T04:56:17.727Z,0
2023-02-23T04:57:17.628Z,0
2023-02-23T04:58:17.603Z,0
2023-02-23T04:59:17.632Z,0
2023-02-23T05:00:17.570Z,0
2023-02-23T05:01:18.117Z,0
2023-02-23T05:02:17.474Z,0
2023-02-23T05:03:17.490Z,0
2023-02-23T05:04:17.167Z,0
2023-02-23T05:05:17.659Z,0
2023-02-23T05:06:17.415Z,0
2023-02-23T05:07:17.359Z,0
2023-02-23T05:08:17.334Z,0
2023-02-23T05:09:17.267Z,0
2023-02-23T05:10:17.258Z,0
2023-02-23T05:11:17.609Z,0
2023-02-23T05:12:17.166Z,0
2023-02-23T05:13:16.897Z,0
2023-02-23T05:14:17.140Z,0
2023-02-23T05:15:17.119Z,0
2023-02-23T05:16:17.686Z,0
2023-02-23T05:17:18.209Z,0
2023-02-23T05:18:16.978Z,0
2023-02-23T05:19:16.946Z,0
2023-02-23T05:20:16.954Z,0
2023-02-23T05:21:17.139Z,0
2023-02-23T05:22:16.857Z,0
2023-02-23T05:23:16.668Z,0
2023-02-23T05:24:16.864Z,0
2023-02-23T05:25:16.769Z,0
2023-02-23T05:26:16.752Z,0
2023-02-23T05:27:16.783Z,0
2023-02-23T05:28:16.712Z,0
2023-02-23T05:29:16.442Z,0
2023-02-23T05:30:16.818Z,0
2023-02-23T05:31:17.556Z,0
2023-02-23T05:32:17.659Z,0
2023-02-23T05:33:18.349Z,0
2023-02-23T05:34:16.272Z,0
2023-02-23T05:35:16.494Z,0
2023-02-23T05:36:16.440Z,0
2023-02-23T05:37:16.594Z,0
2023-02-23T05:38:16.396Z,0
2023-02-23T05:39:16.345Z,0
2023-02-23T05:40:16.358Z,0
2023-02-23T05:41:16.322Z,0
2023-02-23T05:42:16.251Z,0
2023-02-23T05:43:16.323Z,0
2023-02-23T05:44:16.258Z,0
2023-02-23T05:45:16.248Z,0
2023-02-23T05:46:16.426Z,0
2023-02-23T05:47:16.106Z,0
2023-02-23T05:48:16.107Z,0
2023-02-23T05:49:17.847Z,0
2023-02-23T05:50:16.025Z,0
2023-02-23T05:51:16.118Z,0
2023-02-23T05:52:15.964Z,0
2023-02-23T05:53:15.911Z,0
2023-02-23T05:54:15.864Z,0
2023-02-23T05:55:15.946Z,0
2023-02-23T05:56:15.876Z,0
2023-02-23T05:57:15.792Z,0
2023-02-23T05:58:15.740Z,0
2023-02-23T05:59:15.828Z,0
2023-02-23T06:00:15.976Z,0
2023-02-23T06:01:15.770Z,0
2023-02-23T06:02:15.945Z,0
2023-02-23T06:03:15.682Z,0
2023-02-23T06:04:16.028Z,0
2023-02-23T06:05:15.580Z,0
2023-02-23T06:06:15.722Z,0
2023-02-23T06:07:15.477Z,0
2023-02-23T06:08:15.500Z,0
2023-02-23T06:09:15.420Z,0
2023-02-23T06:10:15.400Z,0
2023-02-23T06:11:15.132Z,0
2023-02-23T06:12:15.343Z,0
2023-02-23T06:13:15.285Z,0
2023-02-23T06:14:15.248Z,0
2023-02-23T06:15:15.313Z,0
2023-02-23T06:16:16.301Z,0
2023-02-23T06:17:15.394Z,0
2023-02-23T06:18:14.913Z,0
2023-02-23T06:19:15.157Z,0
2023-02-23T06:20:15.148Z,0
2023-02-23T06:21:15.109Z,0
2023-02-23T06:22:15.011Z,0
2023-02-23T06:23:14.992Z,0
2023-02-23T06:24:14.943Z,0
2023-02-23T06:25:15.099Z,0
2023-02-23T06:26:14.893Z,0
2023-02-23T06:27:14.875Z,0
2023-02-23T06:28:15.150Z,0
2023-02-23T06:29:14.797Z,0
2023-02-23T06:30:14.820Z,0
2023-02-23T06:31:15.408Z,0
2023-02-23T06:32:15.458Z,0
2023-02-23T06:33:14.669Z,0
2023-02-23T06:34:14.644Z,0
2023-02-23T06:35:14.784Z,0
2023-02-23T06:36:14.672Z,5
2023-02-23T06:37:16.377Z,5
2023-02-23T06:38:14.270Z,5
2023-02-23T06:39:14.478Z,5
2023-02-23T06:40:14.523Z,5
2023-02-23T06:41:14.415Z,5
2023-02-23T06:42:14.471Z,10
2023-02-23T06:43:14.358Z,10
2023-02-23T06:44:14.337Z,10
2023-02-23T06:45:14.282Z,10
2023-02-23T06:46:14.369Z,10
2023-02-23T06:47:14.385Z,15
2023-02-23T06:48:14.221Z,15
2023-02-23T06:49:16.477Z,15
2023-02-23T06:50:13.931Z,15
2023-02-23T06:51:14.129Z,15
2023-02-23T06:52:14.363Z,15
2023-02-23T06:53:14.051Z,20
2023-02-23T06:54:14.018Z,20
2023-02-23T06:55:14.005Z,20
2023-02-23T06:56:15.752Z,25
2023-02-23T06:57:13.923Z,25
2023-02-23T06:58:13.907Z,30
2023-02-23T06:59:13.970Z,30
2023-02-23T07:00:13.937Z,35
2023-02-23T07:01:13.795Z,35
2023-02-23T07:02:13.919Z,35
2023-02-23T07:03:13.802Z,40
2023-02-23T07:04:16.631Z,40
2023-02-23T07:05:13.690Z,40
2023-02-23T07:06:13.658Z,45
2023-02-23T07:07:13.644Z,45
2023-02-23T07:08:13.682Z,50
2023-02-23T07:09:13.554Z,50
2023-02-23T07:10:13.531Z,50
2023-02-23T07:11:13.544Z,50
2023-02-23T07:12:13.477Z,55
2023-02-23T07:13:13.437Z,60
2023-02-23T07:14:28.876Z,65
2023-02-23T07:15:13.386Z,65
2023-02-23T07:16:13.649Z,65
2023-02-23T07:17:15.199Z,65
2023-02-23T07:18:13.344Z,70
2023-02-23T07:19:13.272Z,70
2023-02-23T07:20:13.222Z,70
2023-02-23T07:21:13.372Z,65
2023-02-23T07:22:13.134Z,65
2023-02-23T07:23:13.161Z,65
2023-02-23T07:24:13.105Z,65
2023-02-23T07:25:13.109Z,70
2023-02-23T07:26:13.015Z,70
2023-02-23T07:27:12.740Z,70
2023-02-23T07:28:12.968Z,65
2023-02-23T07:29:13.057Z,60
2023-02-23T07:30:12.889Z,60
2023-02-23T07:31:13.621Z,60
2023-02-23T07:32:13.903Z,50
2023-02-23T07:33:12.852Z,50
2023-02-23T07:34:12.772Z,50
2023-02-23T07:35:12.979Z,55
2023-02-23T07:36:12.971Z,50
2023-02-23T07:37:12.744Z,50
2023-02-23T07:38:12.680Z,55
2023-02-23T07:39:12.690Z,55
2023-02-23T07:40:12.618Z,55
2023-02-23T07:41:12.559Z,70
2023-02-23T07:42:12.569Z,75
2023-02-23T07:43:12.517Z,85
2023-02-23T07:44:12.488Z,90
2023-02-23T07:45:12.568Z,95
2023-02-23T07:46:12.888Z,100
2023-02-23T07:47:12.410Z,100
2023-02-23T07:48:12.394Z,90
2023-02-23T07:49:12.068Z,85
2023-02-23T07:50:12.105Z,85
2023-02-23T07:51:14.670Z,95
2023-02-23T07:52:11.977Z,105
2023-02-23T07:53:11.958Z,115
2023-02-23T07:54:12.200Z,115
2023-02-23T07:55:12.185Z,115
2023-02-23T07:56:12.128Z,120
2023-02-23T07:57:12.077Z,110
2023-02-23T07:58:11.813Z,105
2023-02-23T07:59:12.041Z,100
2023-02-23T08:00:11.974Z,90
2023-02-23T08:01:12.091Z,85
2023-02-23T08:02:11.982Z,95
2023-02-23T08:03:11.886Z,95
2023-02-23T08:04:12.315Z,85
2023-02-23T08:05:11.836Z,85
2023-02-23T08:06:11.824Z,95
2023-02-23T08:07:11.821Z,100
2023-02-23T08:08:11.767Z,105
2023-02-23T08:09:11.737Z,110
2023-02-23T08:10:11.710Z,110
2023-02-23T08:11:11.676Z,115
2023-02-23T08:12:11.432Z,115
2023-02-23T08:13:12.200Z,120
2023-02-23T08:14:11.636Z,130
2023-02-23T08:15:11.309Z,145
2023-02-23T08:16:11.600Z,155
2023-02-23T08:17:11.770Z,155
2023-02-23T08:18:11.374Z,145
2023-02-23T08:19:11.424Z,140
2023-02-23T08:20:11.332Z,135
2023-02-23T08:21:11.381Z,125
2023-02-23T08:22:14.688Z,110
2023-02-23T08:23:11.301Z,115
2023-02-23T08:24:11.250Z,125
2023-02-23T08:25:11.223Z,115
2023-02-23T08:26:11.247Z,100
2023-02-23T08:27:11.186Z,90
2023-02-23T08:28:14.089Z,85
2023-02-23T08:29:10.875Z,85
2023-02-23T08:30:11.091Z,95
2023-02-23T08:31:11.700Z,120
2023-02-23T08:32:11.589Z,140
2023-02-23T08:33:10.776Z,140
2023-02-23T08:34:10.989Z,135
2023-02-23T08:35:10.792Z,130
2023-02-23T08:36:10.998Z,130
2023-02-23T08:37:11.591Z,120
2023-02-23T08:38:10.903Z,120
2023-02-23T08:39:10.829Z,125
2023-02-23T08:40:10.528Z,130
2023-02-23T08:41:10.738Z,135
2023-02-23T08:42:10.699Z,130
2023-02-23T08:43:10.691Z,125
2023-02-23T08:44:10.697Z,125
2023-02-23T08:45:13.275Z,130
2023-02-23T08:46:10.912Z,135
2023-02-23T08:47:10.544Z,145
2023-02-23T08:48:10.276Z,155
2023-02-23T08:49:10.508Z,150
2023-02-23T08:50:10.584Z,145
2023-02-23T08:51:10.449Z,155
2023-02-23T08:52:10.508Z,160
2023-02-23T08:53:10.355Z,155
2023-02-23T08:54:10.123Z,135
2023-02-23T08:55:10.917Z,115
2023-02-23T08:56:10.515Z,105
2023-02-23T08:57:12.267Z,85
2023-02-23T08:58:09.952Z,75
2023-02-23T08:59:10.189Z,70
2023-02-23T09:00:09.960Z,70
2023-02-23T09:01:10.402Z,75
2023-02-23T09:02:10.295Z,85
2023-02-23T09:03:10.233Z,95
2023-02-23T09:04:10.023Z,90
2023-02-23T09:05:09.689Z,90
2023-02-23T09:06:09.473Z,85
2023-02-23T09:07:09.949Z,85
2023-02-23T09:08:09.499Z,90
2023-02-23T09:09:09.863Z,95
2023-02-23T09:10:09.620Z,95
2023-02-23T09:11:09.660Z,90
2023-02-23T09:12:09.778Z,90
2023-02-23T09:13:09.526Z,90
2023-02-23T09:14:09.722Z,90
2023-02-23T09:15:09.719Z,95
2023-02-23T09:16:10.087Z,105
2023-02-23T09:17:09.633Z,110
2023-02-23T09:18:09.401Z,120
2023-02-23T09:19:09.598Z,105
2023-02-23T09:20:09.583Z,105
2023-02-23T09:21:09.529Z,100
2023-02-23T09:22:09.542Z,100
2023-02-23T09:23:09.428Z,90
2023-02-23T09:24:09.191Z,80
2023-02-23T09:25:09.382Z,85
2023-02-23T09:26:09.497Z,95
2023-02-23T09:27:09.337Z,105
2023-02-23T09:28:09.337Z,100
2023-02-23T09:29:08.773Z,100
2023-02-23T09:30:09.344Z,100
2023-02-23T09:31:10.101Z,100
2023-02-23T09:32:10.062Z,105
2023-02-23T09:33:09.154Z,110
2023-02-23T09:34:09.156Z,110
2023-02-23T09:35:09.065Z,125
2023-02-23T09:36:09.024Z,140
2023-02-23T09:37:08.773Z,150
2023-02-23T09:38:08.976Z,150
2023-02-23T09:39:08.743Z,150
2023-02-23T09:40:08.942Z,165
2023-02-23T09:41:08.865Z,185
2023-02-23T09:42:08.890Z,195
2023-02-23T09:43:08.844Z,200
2023-02-23T09:44:08.555Z,190
2023-02-23T09:45:08.768Z,200
2023-02-23T09:46:08.726Z,215
2023-02-23T09:47:10.252Z,235
2023-02-23T09:48:09.308Z,240
2023-02-23T09:49:08.396Z,255
2023-02-23T09:50:08.617Z,300
2023-02-23T09:51:08.329Z,300
2023-02-23T09:52:07.822Z,330
2023-02-23T09:53:10.589Z,415
2023-02-23T09:54:08.473Z,410
2023-02-23T09:55:08.250Z,350
2023-02-23T09:56:08.441Z,275
2023-02-23T09:57:08.246Z,275
2023-02-23T09:58:08.399Z,310
2023-02-23T09:59:09.999Z,310
2023-02-23T10:00:08.328Z,310
2023-02-23T10:01:08.316Z,320
2023-02-23T10:02:08.555Z,290
2023-02-23T10:03:08.040Z,290
2023-02-23T10:04:08.221Z,310
2023-02-23T10:05:08.637Z,305
2023-02-23T10:06:08.145Z,290
2023-02-23T10:07:07.891Z,305
2023-02-23T10:08:08.064Z,315
2023-02-23T10:09:07.798Z,320
2023-02-23T10:10:08.333Z,345
2023-02-23T10:11:07.764Z,325
2023-02-23T10:12:08.033Z,260
2023-02-23T10:13:08.004Z,210
2023-02-23T10:14:07.944Z,155
2023-02-23T10:15:08.063Z,130
2023-02-23T10:16:08.293Z,115
2023-02-23T10:17:07.809Z,125
2023-02-23T10:18:10.047Z,140
2023-02-23T10:19:07.761Z,135
2023-02-23T10:20:07.769Z,135
2023-02-23T10:21:07.671Z,140
2023-02-23T10:22:07.691Z,150
2023-02-23T10:23:07.389Z,150
2023-02-23T10:24:07.390Z,150
2023-02-23T10:25:07.336Z,135
2023-02-23T10:26:07.526Z,135
2023-02-23T10:27:07.492Z,135
2023-02-23T10:28:07.236Z,130
2023-02-23T10:29:07.574Z,145
2023-02-23T10:30:07.255Z,185
2023-02-23T10:31:08.229Z,195
2023-02-23T10:32:08.418Z,200
2023-02-23T10:33:07.336Z,235
2023-02-23T10:34:07.497Z,265
2023-02-23T10:35:07.338Z,275
2023-02-23T10:36:21.232Z,300
2023-02-23T10:37:07.217Z,300
2023-02-23T10:38:07.200Z,280
2023-02-23T10:39:07.165Z,260
2023-02-23T10:40:07.128Z,260
2023-02-23T10:41:07.092Z,265
2023-02-23T10:42:06.985Z,275
2023-02-23T10:43:07.100Z,255
2023-02-23T10:44:24.186Z,245
2023-02-23T10:45:06.976Z,245
2023-02-23T10:46:07.113Z,220
2023-02-23T10:47:07.010Z,215
2023-02-23T10:48:06.894Z,245
2023-02-23T10:49:06.815Z,270
2023-02-23T10:50:06.851Z,290
2023-02-23T10:51:06.847Z,285
2023-02-23T10:52:06.839Z,290
2023-02-23T10:53:06.699Z,300
2023-02-23T10:54:15.072Z,280
2023-02-23T10:55:06.659Z,255
2023-02-23T10:56:06.627Z,225
2023-02-23T10:57:06.624Z,200
2023-02-23T10:58:06.736Z,200
2023-02-23T10:59:06.598Z,195
2023-02-23T11:00:06.515Z,195
2023-02-23T11:01:06.502Z,195
2023-02-23T11:02:12.359Z,180
2023-02-23T11:03:06.474Z,175
2023-02-23T11:04:15.510Z,170
2023-02-23T11:05:06.809Z,165
2023-02-23T11:06:06.350Z,170
2023-02-23T11:07:06.307Z,170
2023-02-23T11:08:06.301Z,170
2023-02-23T11:09:07.224Z,170
2023-02-23T11:10:06.461Z,170
2023-02-23T11:11:06.197Z,165
2023-02-23T11:12:06.365Z,165
2023-02-23T11:13:06.263Z,175
2023-02-23T11:14:06.094Z,180
2023-02-23T11:15:06.085Z,185
2023-02-23T11:16:06.020Z,185
2023-02-23T11:17:06.019Z,185
2023-02-23T11:18:06.042Z,170
2023-02-23T11:19:06.160Z,160
2023-02-23T11:20:05.924Z,165
2023-02-23T11:21:05.895Z,175
2023-02-23T11:22:05.853Z,170
2023-02-23T11:23:21.274Z,165
2023-02-23T11:24:05.294Z,170
2023-02-23T11:25:05.739Z,165
2023-02-23T11:26:05.720Z,165
2023-02-23T11:27:05.676Z,160
2023-02-23T11:28:05.981Z,150
2023-02-23T11:29:05.132Z,145
2023-02-23T11:30:06.233Z,135
2023-02-23T11:31:06.164Z,130
2023-02-23T11:32:11.959Z,125
2023-02-23T11:33:05.533Z,125
2023-02-23T11:34:05.633Z,130
2023-02-23T11:35:05.453Z,135
2023-02-23T11:36:05.146Z,140
2023-02-23T11:37:05.391Z,135
2023-02-23T11:38:07.812Z,135
2023-02-23T11:39:05.357Z,135
2023-02-23T11:40:05.394Z,130
2023-02-23T11:41:05.245Z,125
2023-02-23T11:42:05.251Z,120
2023-02-23T11:43:05.193Z,115
2023-02-23T11:44:08.120Z,115
2023-02-23T11:45:05.144Z,120
2023-02-23T11:46:05.560Z,110
2023-02-23T11:47:05.227Z,125
2023-02-23T11:48:05.139Z,125
2023-02-23T11:49:05.150Z,120
2023-02-23T11:50:05.169Z,115
2023-02-23T11:51:04.970Z,95
2023-02-23T11:52:04.731Z,85
2023-02-23T11:53:04.648Z,85
2023-02-23T11:54:06.428Z,75
2023-02-23T11:55:04.891Z,70
2023-02-23T11:56:04.849Z,75
2023-02-23T11:57:05.284Z,80
2023-02-23T11:58:04.716Z,80
2023-02-23T11:59:04.231Z,85
2023-02-23T12:00:04.692Z,90
2023-02-23T12:01:04.634Z,95
2023-02-23T12:02:04.611Z,90
2023-02-23T12:03:04.887Z,90
2023-02-23T12:04:04.452Z,90
2023-02-23T12:05:07.269Z,95
2023-02-23T12:06:04.646Z,90
2023-02-23T12:07:04.704Z,100
2023-02-23T12:08:04.782Z,95
2023-02-23T12:09:04.406Z,100
2023-02-23T12:10:04.609Z,110
2023-02-23T12:11:04.584Z,135
2023-02-23T12:12:05.854Z,130
2023-02-23T12:13:03.850Z,130
2023-02-23T12:14:04.235Z,135
2023-02-23T12:15:03.950Z,115
2023-02-23T12:16:04.290Z,110
2023-02-23T12:17:06.024Z,110
2023-02-23T12:18:03.924Z,105
2023-02-23T12:19:04.166Z,90
2023-02-23T12:20:04.112Z,90
2023-02-23T12:21:04.168Z,90
2023-02-23T12:22:03.918Z,90
2023-02-23T12:23:03.968Z,85
2023-02-23T12:24:03.926Z,90
2023-02-23T12:25:03.923Z,85
2023-02-23T12:26:03.952Z,90
2023-02-23T12:27:03.620Z,90
2023-02-23T12:28:21.501Z,90
2023-02-23T12:29:03.776Z,90
2023-02-23T12:30:03.570Z,85
2023-02-23T12:31:03.970Z,105
2023-02-23T12:32:04.370Z,130
2023-02-23T12:33:03.741Z,135
2023-02-23T12:34:03.654Z,145
2023-02-23T12:35:03.638Z,155
2023-02-23T12:36:03.597Z,155
2023-02-23T12:37:03.559Z,150
2023-02-23T12:38:03.761Z,140
2023-02-23T12:39:03.447Z,135
2023-02-23T12:40:03.569Z,135
2023-02-23T12:41:03.156Z,130
2023-02-23T12:42:03.399Z,125
2023-02-23T12:43:03.454Z,115
2023-02-23T12:44:03.346Z,105
2023-02-23T12:45:03.310Z,105
2023-02-23T12:46:03.658Z,100
2023-02-23T12:47:03.004Z,95
2023-02-23T12:48:03.230Z,90
2023-02-23T12:49:03.164Z,90
2023-02-23T12:50:03.106Z,85
2023-02-23T12:51:03.082Z,85
2023-02-23T12:52:03.096Z,90
2023-02-23T12:53:02.795Z,90
2023-02-23T12:54:03.412Z,90
2023-02-23T12:55:03.028Z,85
2023-02-23T12:56:02.926Z,80
2023-02-23T12:57:06.871Z,95
2023-02-23T12:58:02.872Z,105
2023-02-23T12:59:02.878Z,95
2023-02-23T13:00:02.883Z,100
2023-02-23T13:01:02.715Z,105
2023-02-23T13:02:02.611Z,105
2023-02-23T13:03:02.518Z,110
2023-02-23T13:04:02.690Z,110
2023-02-23T13:05:02.668Z,110
2023-02-23T13:06:02.428Z,110
2023-02-23T13:07:04.378Z,105
2023-02-23T13:08:20.053Z,95
2023-02-23T13:09:02.551Z,95
2023-02-23T13:10:03.218Z,95
2023-02-23T13:11:03.225Z,95
2023-02-23T13:12:02.447Z,100
2023-02-23T13:13:04.903Z,105
2023-02-23T13:14:02.386Z,115
2023-02-23T13:15:02.754Z,120
2023-02-23T13:16:02.711Z,125
2023-02-23T13:17:02.591Z,135
2023-02-23T13:18:02.242Z,145
2023-02-23T13:19:03.939Z,160
2023-02-23T13:20:02.013Z,165
2023-02-23T13:21:01.926Z,165
2023-02-23T13:22:02.126Z,170
2023-02-23T13:23:02.118Z,180
2023-02-23T13:24:02.131Z,185
2023-02-23T13:25:04.663Z,175
2023-02-23T13:26:02.144Z,175
2023-02-23T13:27:01.729Z,195
2023-02-23T13:28:01.949Z,215
2023-02-23T13:29:01.940Z,225
2023-02-23T13:30:01.884Z,230
2023-02-23T13:31:04.730Z,230
2023-02-23T13:32:02.973Z,230
2023-02-23T13:33:01.558Z,210
2023-02-23T13:34:01.767Z,185
2023-02-23T13:35:01.801Z,150
2023-02-23T13:36:01.694Z,140
2023-02-23T13:37:01.684Z,120
2023-02-23T13:38:01.644Z,105
2023-02-23T13:39:07.518Z,90
2023-02-23T13:40:01.593Z,85
2023-02-23T13:41:01.879Z,75
2023-02-23T13:42:01.581Z,75
2023-02-23T13:43:01.469Z,80
2023-02-23T13:44:01.264Z,75
2023-02-23T13:45:01.438Z,80
2023-02-23T13:46:01.381Z,95
2023-02-23T13:47:01.384Z,110
2023-02-23T13:48:01.433Z,110
2023-02-23T13:49:09.118Z,100
2023-02-23T13:50:01.067Z,95
2023-02-23T13:51:01.262Z,90
2023-02-23T13:52:01.032Z,95
2023-02-23T13:53:01.203Z,90
2023-02-23T13:54:01.142Z,85
2023-02-23T13:55:01.199Z,80
2023-02-23T13:56:02.243Z,70
2023-02-23T13:57:00.825Z,70
2023-02-23T13:58:01.099Z,65
2023-02-23T13:59:01.130Z,65
2023-02-23T14:00:01.253Z,70
2023-02-23T14:01:00.922Z,65
2023-02-23T14:02:01.769Z,75
2023-02-23T14:03:01.783Z,75
2023-02-23T14:04:01.047Z,70
2023-02-23T14:05:01.898Z,75
2023-02-23T14:06:00.795Z,65
2023-02-23T14:07:00.769Z,65
2023-02-23T14:08:00.760Z,60
2023-02-23T14:09:00.714Z,60
2023-02-23T14:10:00.752Z,60
2023-02-23T14:11:00.623Z,60
2023-02-23T14:12:00.382Z,60
2023-02-23T14:13:00.626Z,65
2023-02-23T14:14:02.979Z,65
2023-02-23T14:15:00.489Z,60
2023-02-23T14:16:00.549Z,55
2023-02-23T14:17:00.447Z,50
2023-02-23T14:18:00.389Z,50
2023-02-23T14:19:00.185Z,50
2023-02-23T14:20:00.376Z,50